Time;durP1;ratioP1;P1;durP2;ratioP2;P2;SDS_P1;SDS_P2;PMS_P1;PMS_P2;Temp;Humidity;BMP_temperature;BMP_pressure;BME280_temperature;BME280_humidity;BME280_pressure;Samples;Min_cycle;Max_cycle;Signal;HPM_P1;HPM_P2
2021/12/08 00:00:42;;;;;;;;;5.00;5.00;;;;;21.14;46.68;98759.31;5081914;27;46928;-74
2021/12/08 00:03:09;;;;;;;;;5.00;4.00;;;;;21.10;46.43;98756.94;5065117;27;45453;-72
2021/12/08 00:05:35;;;;;;;;;7.50;5.25;;;;;21.14;46.59;98759.31;5065145;27;45441;-72
2021/12/08 00:08:00;;;;;;;;;4.00;3.50;;;;;21.14;46.75;98750.50;5082411;27;45295;-72
2021/12/08 00:10:52;;;;;;;;;4.25;4.25;;;;;21.11;46.58;98761.31;5065115;27;45579;-72
2021/12/08 00:13:14;;;;;;;;;5.00;4.25;;;;;21.14;46.68;98761.97;5071462;27;45343;-72
2021/12/08 00:15:42;;;;;;;;;5.50;5.00;;;;;21.14;46.50;98766.44;5100328;27;45358;-72
2021/12/08 00:18:11;;;;;;;;;5.75;5.00;;;;;21.14;46.69;98758.47;5100471;27;45408;-72
2021/12/08 00:20:37;;;;;;;;;6.75;6.75;;;;;21.13;46.71;98752.31;5081603;27;46183;-72
2021/12/08 00:23:03;;;;;;;;;5.75;4.50;;;;;21.13;46.61;98754.97;5099976;27;45238;-72
2021/12/08 00:25:29;;;;;;;;;5.00;5.00;;;;;21.15;46.67;98749.56;5100169;27;45330;-72
2021/12/08 00:27:55;;;;;;;;;7.75;5.75;;;;;21.14;46.59;98734.59;5099792;27;45318;-73
2021/12/08 00:30:20;;;;;;;;;5.75;5.00;;;;;21.13;46.81;98727.59;5100084;27;46377;-73
2021/12/08 00:32:46;;;;;;;;;6.00;4.75;;;;;21.13;46.85;98735.56;5081446;27;45266;-72
2021/12/08 00:35:11;;;;;;;;;4.50;4.50;;;;;21.13;46.64;98740.84;5100184;27;45327;-73
2021/12/08 00:37:37;;;;;;;;;6.50;4.75;;;;;21.14;46.73;98748.72;5062551;27;45585;-73
2021/12/08 00:40:09;;;;;;;;;3.50;3.50;;;;;21.13;46.68;98725.78;5066291;27;49455;-73
2021/12/08 00:42:36;;;;;;;;;6.25;6.25;;;;;21.14;46.44;98731.94;5084710;27;45386;-72
2021/12/08 00:45:01;;;;;;;;;5.00;4.00;;;;;21.14;46.57;98743.41;5068727;27;45391;-73
2021/12/08 00:47:27;;;;;;;;;5.75;4.00;;;;;21.14;46.15;98745.22;5085267;27;45334;-73
2021/12/08 00:49:52;;;;;;;;;4.25;4.25;;;;;21.12;46.58;98742.66;5067870;27;50606;-73
2021/12/08 00:52:17;;;;;;;;;6.75;5.25;;;;;21.13;46.38;98762.94;5067407;27;58091;-73
2021/12/08 00:54:43;;;;;;;;;4.00;4.00;;;;;21.15;46.29;98778.72;5050790;27;54837;-72
2021/12/08 00:57:09;;;;;;;;;5.25;4.25;;;;;21.14;46.65;98779.69;5067884;27;45474;-72
2021/12/08 00:59:34;;;;;;;;;4.75;4.00;;;;;21.13;46.37;98780.66;5067889;27;47758;-73
2021/12/08 01:02:02;;;;;;;;;4.25;4.25;;;;;21.13;46.38;98780.66;5066855;27;71739;-73
2021/12/08 01:04:29;;;;;;;;;7.50;6.50;;;;;21.12;46.50;98781.59;5085267;27;45319;-73
2021/12/08 01:06:55;;;;;;;;;6.50;3.75;;;;;21.10;46.41;98783.47;5067866;27;45558;-73
2021/12/08 01:09:20;;;;;;;;;4.75;4.75;;;;;21.13;46.60;98783.31;5050731;27;46737;-73
2021/12/08 01:11:46;;;;;;;;;5.50;5.00;;;;;21.10;46.33;98773.72;5083867;27;58192;-73
2021/12/08 01:14:12;;;;;;;;;7.75;5.25;;;;;21.11;46.32;98783.41;5084862;27;45311;-73
2021/12/08 01:16:37;;;;;;;;;5.50;5.50;;;;;21.10;46.53;98771.06;5094604;27;45448;-73
2021/12/08 01:19:03;;;;;;;;;5.25;5.25;;;;;21.11;46.46;98777.22;5067198;27;52542;-73
2021/12/08 01:21:28;;;;;;;;;8.00;6.75;;;;;21.10;46.42;98784.31;5084507;27;45398;-72
2021/12/08 01:23:54;;;;;;;;;7.00;6.75;;;;;21.09;46.10;98773.81;5102818;27;45169;-73
2021/12/08 01:26:19;;;;;;;;;6.00;5.00;;;;;21.07;46.55;98758.00;5084123;27;45743;-73
2021/12/08 01:28:45;;;;;;;;;8.00;5.25;;;;;21.08;46.57;98754.41;5084242;27;47377;-73
2021/12/08 01:31:10;;;;;;;;;4.00;4.00;;;;;21.10;46.47;98746.34;5067402;27;45297;-73
2021/12/08 01:33:36;;;;;;;;;6.00;4.25;;;;;21.10;46.39;98751.66;5063842;28;45278;-73
2021/12/08 01:36:03;;;;;;;;;5.25;5.00;;;;;21.10;46.24;98756.94;5063175;27;45241;-73
2021/12/08 01:38:28;;;;;;;;;8.50;5.25;;;;;21.08;46.43;98751.75;5067678;27;45442;-73
2021/12/08 01:40:54;;;;;;;;;4.75;4.75;;;;;21.11;46.17;98762.19;5083159;27;64560;-73
2021/12/08 01:43:39;;;;;;;;;5.75;4.00;;;;;21.10;46.11;98763.09;5067047;27;52490;-73
2021/12/08 01:46:06;;;;;;;;;5.00;4.00;;;;;21.09;46.13;98761.41;5101011;27;45505;-73
2021/12/08 01:48:36;;;;;;;;;5.75;4.75;;;;;21.10;46.53;98763.09;5067302;27;47790;-73
2021/12/08 01:51:06;;;;;;;;;5.00;5.00;;;;;21.09;46.11;98774.66;5083601;27;45213;-73
2021/12/08 01:53:31;;;;;;;;;8.25;6.00;;;;;21.10;46.12;98788.78;5102628;27;45338;-72
2021/12/08 01:55:57;;;;;;;;;9.25;7.00;;;;;21.10;46.38;98788.78;5101778;27;45440;-73
2021/12/08 01:58:22;;;;;;;;;4.75;4.75;;;;;21.08;46.54;98788.88;5102261;27;46280;-73
2021/12/08 02:00:54;;;;;;;;;5.00;5.00;;;;;21.08;46.16;98793.34;5084013;27;45536;-73
2021/12/08 02:03:19;;;;;;;;;6.50;6.50;;;;;21.09;46.21;98798.53;5102237;27;45363;-72
2021/12/08 02:05:45;;;;;;;;;4.75;3.75;;;;;21.08;46.16;98788.03;5101907;27;45500;-73
2021/12/08 02:08:10;;;;;;;;;6.75;6.75;;;;;21.09;46.51;98795.88;5066823;27;47167;-73
2021/12/08 02:10:37;;;;;;;;;5.50;5.00;;;;;21.08;46.34;98806.59;5083580;27;45354;-73
2021/12/08 02:13:03;;;;;;;;;5.25;5.00;;;;;21.04;46.27;98790.06;5067100;27;45343;-73
2021/12/08 02:15:28;;;;;;;;;7.50;4.25;;;;;21.07;46.13;98803.09;5101933;27;45177;-72
2021/12/08 02:17:54;;;;;;;;;8.00;5.50;;;;;21.08;46.00;98833.13;5066745;27;46073;-72
2021/12/08 02:20:21;;;;;;;;;5.75;5.75;;;;;21.06;46.21;98825.28;5101556;27;45157;-72
2021/12/08 02:22:47;;;;;;;;;7.00;6.00;;;;;21.07;46.12;98840.25;5083586;27;45253;-72
2021/12/08 02:25:16;;;;;;;;;6.00;5.25;;;;;21.05;46.25;98836.84;5100362;27;45290;-72
2021/12/08 02:27:42;;;;;;;;;5.25;5.00;;;;;21.06;45.85;98838.53;5083085;27;47450;-71
2021/12/08 02:30:19;;;;;;;;;4.50;4.25;;;;;21.05;46.14;98836.00;5049819;27;45747;-72
2021/12/08 02:48:52;;;;;;;;;5.50;5.00;;;;;21.06;46.19;98850.94;5079947;28;45500;-72
2021/12/08 02:51:20;;;;;;;;;6.00;5.00;;;;;21.05;46.32;98838.66;5079628;28;45426;-73
2021/12/08 02:53:47;;;;;;;;;8.25;5.25;;;;;21.05;46.15;98843.94;5079851;28;45316;-72
2021/12/08 02:56:12;;;;;;;;;6.00;4.50;;;;;21.04;46.16;98847.56;5062817;28;45674;-72
2021/12/08 02:58:38;;;;;;;;;6.75;5.50;;;;;21.06;46.24;98856.25;5062701;28;45619;-72
2021/12/08 03:01:07;;;;;;;;;6.00;6.00;;;;;21.05;46.31;98850.09;5079018;28;59909;-72
2021/12/08 03:03:33;;;;;;;;;4.50;4.00;;;;;21.04;46.36;98840.44;5045956;28;45451;-72
2021/12/08 03:05:59;;;;;;;;;4.00;4.00;;;;;21.05;46.24;98851.91;5045875;28;45586;-72
2021/12/08 03:08:24;;;;;;;;;5.50;5.00;;;;;21.05;45.86;98838.66;5079375;27;48315;-72
2021/12/08 03:10:51;;;;;;;;;5.00;4.50;;;;;21.05;46.30;98836.00;5061519;28;66333;-72
2021/12/08 03:13:16;;;;;;;;;5.00;5.00;;;;;21.03;46.32;98824.63;5046006;28;45424;-73
2021/12/08 03:15:42;;;;;;;;;3.50;3.50;;;;;21.04;45.93;98831.63;5062746;28;45981;-72
2021/12/08 03:18:07;;;;;;;;;4.50;4.00;;;;;21.04;45.98;98829.00;5062349;28;51774;-73
2021/12/08 03:20:40;;;;;;;;;3.00;3.00;;;;;21.04;46.24;98823.69;5075679;28;45233;-73
2021/12/08 03:23:12;;;;;;;;;4.75;4.00;;;;;21.03;46.07;98808.72;5073456;28;45262;-72
2021/12/08 03:25:41;;;;;;;;;5.25;5.00;;;;;21.01;46.00;98821.22;5080734;28;45240;-72
2021/12/08 03:28:15;;;;;;;;;4.00;4.00;;;;;21.03;46.02;98806.06;5079134;27;45639;-72
2021/12/08 03:33:24;;;;;;;;;3.75;3.00;;;;;20.99;46.03;98793.94;5096339;27;45448;-72
2021/12/08 03:35:54;;;;;;;;;2.25;2.00;;;;;21.00;45.98;98787.69;5066518;27;45542;-72
2021/12/08 03:38:19;;;;;;;;;4.50;3.00;;;;;21.00;46.21;98782.38;5082175;27;45899;-73
2021/12/08 03:40:45;;;;;;;;;3.50;3.50;;;;;21.00;46.24;98782.38;5065265;27;45447;-72
2021/12/08 03:43:13;;;;;;;;;3.75;3.75;;;;;20.97;46.22;98793.19;5082480;27;45421;-72
2021/12/08 03:45:43;;;;;;;;;3.50;3.25;;;;;21.01;45.81;98795.53;5100702;27;45500;-72
2021/12/08 03:48:11;;;;;;;;;3.25;3.25;;;;;21.01;45.88;98784.94;5099208;27;47270;-72
2021/12/08 03:50:38;;;;;;;;;4.75;4.75;;;;;21.00;46.00;98795.63;5100522;27;45343;-72
2021/12/08 03:53:04;;;;;;;;;3.00;3.00;;;;;21.01;45.83;98789.38;5065996;27;45304;-72
2021/12/08 03:55:30;;;;;;;;;5.00;3.50;;;;;21.01;46.11;98784.06;5065471;27;45267;-72
2021/12/08 03:57:55;;;;;;;;;5.25;3.00;;;;;21.01;46.27;98787.56;5044385;28;60627;-72
2021/12/08 04:00:23;;;;;;;;;5.50;4.00;;;;;21.01;46.00;98794.69;5091671;27;64549;-72
2021/12/08 04:02:48;;;;;;;;;3.50;3.50;;;;;21.02;45.80;98801.69;5065334;27;45244;-72
2021/12/08 04:05:19;;;;;;;;;5.75;2.00;;;;;21.01;45.61;98800.00;5082219;27;45453;-72
2021/12/08 04:07:46;;;;;;;;;3.00;3.00;;;;;21.01;45.88;98795.53;5065988;27;48490;-72
2021/12/08 04:10:17;;;;;;;;;4.50;4.50;;;;;21.02;46.00;98796.38;5065524;27;45291;-72
2021/12/08 04:12:43;;;;;;;;;5.00;4.00;;;;;21.01;45.59;98789.38;5100343;27;45246;-72
2021/12/08 04:15:09;;;;;;;;;6.25;4.00;;;;;21.01;45.73;98795.53;5085280;27;45449;-72
2021/12/08 04:17:42;;;;;;;;;5.00;3.00;;;;;21.00;45.84;98793.84;5068658;27;48426;-72
2021/12/08 04:20:17;;;;;;;;;3.00;3.00;;;;;21.00;45.44;98783.22;5068982;27;45525;-72
2021/12/08 04:22:44;;;;;;;;;3.00;2.00;;;;;21.00;45.65;98795.63;5069218;27;45470;-72
2021/12/08 04:25:18;;;;;;;;;4.00;4.00;;;;;20.99;45.93;98793.94;5085582;27;45307;-72
2021/12/08 04:27:44;;;;;;;;;4.25;3.75;;;;;20.99;45.40;98796.59;5085225;27;46518;-72
2021/12/08 04:30:13;;;;;;;;;4.25;3.00;;;;;20.98;45.49;98789.59;5085235;27;45735;-72
2021/12/08 04:32:39;;;;;;;;;4.00;4.00;;;;;20.98;45.53;98801.03;5085255;27;45382;-72
2021/12/08 04:35:07;;;;;;;;;2.75;2.75;;;;;20.99;45.85;98804.56;5067726;27;56133;-73
2021/12/08 04:37:34;;;;;;;;;7.25;4.25;;;;;20.98;45.82;98798.41;5101167;27;45509;-73
2021/12/08 04:42:58;;;;;;;;;4.00;4.00;;;;;20.99;45.61;98792.13;5086355;27;45481;-73
2021/12/08 04:45:37;;;;;;;;;7.00;2.00;;;;;20.99;45.43;98812.50;5072003;27;45766;-74
2021/12/08 05:04:24;;;;;;;;;2.75;2.75;;;;;21.01;45.66;98853.03;5085470;27;45557;-73
2021/12/08 05:09:32;;;;;;;;;4.25;3.00;;;;;21.03;45.81;98845.84;5071400;27;45381;-73
2021/12/08 05:12:07;;;;;;;;;3.00;3.00;;;;;21.03;45.59;98851.16;5084220;27;45614;-72
2021/12/08 05:14:54;;;;;;;;;3.75;3.00;;;;;21.05;45.56;98858.06;5084833;27;45354;-72
2021/12/08 05:17:23;;;;;;;;;2.00;2.00;;;;;21.05;45.69;98843.94;5103187;27;45569;-72
2021/12/08 05:19:52;;;;;;;;;1.25;1.00;;;;;21.06;45.54;98846.50;5102779;27;45485;-73
2021/12/08 05:22:29;;;;;;;;;3.00;2.25;;;;;21.07;45.48;98844.69;5084427;27;45343;-72
2021/12/08 05:24:55;;;;;;;;;3.00;1.75;;;;;21.08;45.52;98851.69;5102378;27;45260;-72
2021/12/08 05:27:29;;;;;;;;;3.50;2.75;;;;;21.09;45.33;98864.00;5084334;27;45536;-73
2021/12/08 05:30:00;;;;;;;;;2.25;2.25;;;;;21.10;45.50;98861.25;5085523;27;47125;-72
2021/12/08 05:32:26;;;;;;;;;3.25;3.25;;;;;21.10;45.35;98869.22;5080883;28;45438;-71
2021/12/08 05:34:51;;;;;;;;;2.00;2.00;;;;;21.11;45.18;98868.28;5081547;27;59623;-73
2021/12/08 05:37:18;;;;;;;;;3.25;3.00;;;;;21.09;45.02;98866.66;5078441;28;45322;-73
2021/12/08 05:39:43;;;;;;;;;3.25;3.00;;;;;21.11;45.17;98881.56;5080795;28;45402;-73
2021/12/08 05:42:12;;;;;;;;;1.25;1.25;;;;;21.13;45.36;98884.09;5063434;28;45351;-73
2021/12/08 05:44:38;;;;;;;;;3.25;2.25;;;;;21.12;45.22;98888.56;5082161;28;45386;-73
2021/12/08 05:47:06;;;;;;;;;2.75;2.75;;;;;21.11;45.50;98873.59;5082121;28;45441;-73
2021/12/08 05:49:31;;;;;;;;;2.00;2.00;;;;;21.09;45.19;98869.31;5063751;28;45388;-74
2021/12/08 05:51:57;;;;;;;;;3.00;2.25;;;;;21.12;44.93;98874.44;5046854;28;45793;-75
2021/12/08 05:54:25;;;;;;;;;3.00;2.75;;;;;21.12;46.05;98887.72;5082222;27;45355;-69
2021/12/08 05:56:54;;;;;;;;;2.00;2.00;;;;;21.13;45.71;98879.66;5079947;28;45351;-69
2021/12/08 05:59:19;;;;;;;;;5.00;3.00;;;;;21.17;46.65;98874.97;5059641;28;45471;-71
2021/12/08 06:01:47;;;;;;;;;4.00;3.00;;;;;21.23;47.35;98865.78;5061414;28;45474;-71
2021/12/08 06:04:12;;;;;;;;;5.25;3.00;;;;;21.28;47.18;98877.81;5063426;28;45282;-71
2021/12/08 06:06:38;;;;;;;;;6.75;4.25;;;;;21.33;47.58;98881.03;5063329;27;45475;-74
2021/12/08 06:09:05;;;;;;;;;3.00;3.00;;;;;21.38;47.42;98864.84;5081300;28;45387;-69
2021/12/08 06:11:31;;;;;;;;;5.00;3.25;;;;;21.45;47.99;98869.63;5080761;28;45315;-69
2021/12/08 06:14:00;;;;;;;;;6.25;3.00;;;;;21.53;48.26;98870.94;5080451;28;45591;-71
2021/12/08 06:16:26;;;;;;;;;6.25;3.25;;;;;21.60;48.43;98865.13;5081372;28;45365;-71
2021/12/08 06:18:52;;;;;;;;;3.00;3.00;;;;;21.67;48.31;98868.22;5080129;28;45508;-70
2021/12/08 06:21:20;;;;;;;;;3.50;2.25;;;;;21.72;48.60;98863.47;5081185;28;45437;-72
2021/12/08 06:23:45;;;;;;;;;2.25;2.25;;;;;21.76;48.65;98864.97;5080096;28;45311;-72
2021/12/08 06:26:12;;;;;;;;;3.50;3.25;;;;;21.82;48.23;98867.22;5062998;28;45524;-73
2021/12/08 06:28:38;;;;;;;;;7.00;3.00;;;;;21.85;47.30;98879.44;5063100;28;45573;-72
2021/12/08 06:31:04;;;;;;;;;3.25;1.75;;;;;21.87;47.32;98890.78;5079533;28;53958;-70
2021/12/08 06:33:30;;;;;;;;;3.50;3.00;;;;;21.88;46.72;98887.19;5078198;27;45421;-68
2021/12/08 06:36:10;;;;;;;;;4.25;1.75;;;;;21.88;46.91;98896.00;5062338;28;45804;-71
2021/12/08 06:38:35;;;;;;;;;3.00;2.25;;;;;21.89;47.08;98904.81;5076438;28;46790;-67
2021/12/08 06:41:14;;;;;;;;;2.75;2.75;;;;;21.89;46.45;98899.50;5045496;28;45203;-71
2021/12/08 06:43:43;;;;;;;;;4.00;2.75;;;;;21.89;46.21;98900.38;5083288;27;45435;-70
2021/12/08 06:46:08;;;;;;;;;4.00;3.50;;;;;21.88;46.39;98914.59;5063143;28;45473;-71
2021/12/08 06:48:37;;;;;;;;;2.25;2.25;;;;;21.87;46.51;98904.06;5079489;28;45881;-69
2021/12/08 06:51:24;;;;;;;;;4.25;2.25;;;;;21.87;45.96;98904.06;5045759;28;45642;-70
2021/12/08 06:53:52;;;;;;;;;4.25;3.00;;;;;21.84;45.54;98885.69;5046507;28;45349;-71
2021/12/08 06:56:34;;;;;;;;;3.00;3.00;;;;;21.70;43.61;98890.09;5045467;28;45584;-71
2021/12/08 06:59:01;;;;;;;;;2.75;2.00;;;;;21.56;43.42;98892.00;5079509;28;46646;-69
2021/12/08 07:04:13;;;;;;;;;3.00;2.25;;;;;21.32;42.33;98892.63;5081108;28;45382;-72
2021/12/08 07:09:19;;;;;;;;;2.00;2.00;;;;;21.14;42.14;98881.34;5079276;28;45263;-69
2021/12/08 07:11:45;;;;;;;;;1.75;1.50;;;;;21.04;41.82;98874.06;5046515;28;45965;-69
2021/12/08 07:14:11;;;;;;;;;4.25;3.00;;;;;20.95;40.93;98875.50;5079508;28;45342;-69
2021/12/08 07:16:39;;;;;;;;;3.50;1.00;;;;;20.86;40.67;98879.59;5079137;28;45496;-69
2021/12/08 07:19:10;;;;;;;;;4.50;2.25;;;;;20.75;41.66;98890.00;5060355;28;46372;-70
2021/12/08 07:21:41;;;;;;;;;3.00;1.75;;;;;20.66;40.56;98901.16;5080459;27;45524;-69
2021/12/08 07:24:28;;;;;;;;;6.00;2.25;;;;;20.49;40.17;98893.41;5063349;28;45328;-69
2021/12/08 07:26:59;;;;;;;;;1.50;1.00;;;;;20.36;41.04;98893.25;5068932;28;45369;-70
2021/12/08 07:29:27;;;;;;;;;2.00;2.00;;;;;20.30;41.16;98905.06;5080493;28;46009;-70
2021/12/08 07:31:56;;;;;;;;;2.00;1.00;;;;;20.29;40.34;98915.78;5081727;27;45235;-70
2021/12/08 07:34:22;;;;;;;;;7.00;3.50;;;;;20.19;40.20;98914.63;5056395;27;45426;-71
2021/12/08 07:36:51;;;;;;;;;2.25;2.25;;;;;20.02;40.42;98913.81;5097832;27;45473;-69
2021/12/08 07:39:27;;;;;;;;;4.25;3.00;;;;;19.93;40.51;98913.50;5099184;27;45639;-70
2021/12/08 07:41:56;;;;;;;;;3.00;2.00;;;;;19.85;40.84;98913.94;5054390;27;45467;-70
2021/12/08 07:44:22;;;;;;;;;2.00;2.00;;;;;19.79;40.26;98924.88;5082303;27;45382;-70
2021/12/08 07:46:51;;;;;;;;;2.00;2.00;;;;;19.69;39.96;98929.00;5065650;27;45424;-70
2021/12/08 07:49:24;;;;;;;;;3.00;2.00;;;;;19.58;40.37;98948.13;5068068;27;48418;-70
2021/12/08 07:52:09;;;;;;;;;5.25;2.00;;;;;19.49;40.43;98962.69;5085801;27;45350;-70
2021/12/08 07:54:35;;;;;;;;;4.00;3.50;;;;;19.44;40.63;98950.66;5069088;27;45420;-70
2021/12/08 07:57:03;;;;;;;;;2.25;2.00;;;;;19.44;41.36;98958.59;5068022;27;46067;-69
2021/12/08 07:59:31;;;;;;;;;4.25;4.00;;;;;19.45;41.01;98966.44;5068992;27;47349;-70
2021/12/08 08:02:10;;;;;;;;;;;;;;;;;;;;;
2021/12/08 08:04:58;;;;;;;;;;;;;;;;;;;;;
2021/12/08 08:10:43;;;;;;;;;2.25;1.75;;;;;19.51;41.81;98946.72;5055008;27;45541;-69
2021/12/08 08:13:10;;;;;;;;;3.00;2.00;;;;;19.56;41.50;98949.13;5085774;27;45303;-69
2021/12/08 08:15:39;;;;;;;;;2.75;2.00;;;;;19.63;41.68;98945.22;5085762;27;45379;-69
2021/12/08 08:18:08;;;;;;;;;3.50;2.50;;;;;19.63;41.63;98956.66;5069415;27;45484;-69
2021/12/08 08:20:36;;;;;;;;;4.50;2.00;;;;;19.69;41.39;98948.38;5060380;27;47030;-70
2021/12/08 08:23:01;;;;;;;;;3.00;2.00;;;;;19.75;41.55;98950.69;5068515;27;45389;-70
2021/12/08 08:25:34;;;;;;;;;2.00;1.50;;;;;19.80;41.21;98952.19;5068327;27;45280;-70
2021/12/08 08:27:59;;;;;;;;;6.50;2.00;;;;;19.85;41.09;98953.66;5103516;27;45173;-70
2021/12/08 08:30:29;;;;;;;;;4.00;2.00;;;;;19.89;41.19;98949.03;5068337;28;46213;-70
2021/12/08 08:32:54;;;;;;;;;4.00;3.00;;;;;19.93;41.10;98954.06;5102250;27;45180;-69
2021/12/08 08:35:32;;;;;;;;;2.75;1.25;;;;;19.99;40.92;98960.81;5068390;27;45462;-69
2021/12/08 08:38:31;;;;;;;;;4.50;3.25;;;;;20.05;40.94;98955.13;5070433;27;45268;-70
2021/12/08 08:45:11;;;;;;;;;;;;;;;;;;;;;
2021/12/08 08:48:43;;;;;;;;;;;;;;;;;;;;;
2021/12/08 08:51:42;;;;;;;;;1.00;1.00;;;;;20.06;40.94;98959.50;5055227;27;70965;-71
2021/12/08 08:54:22;;;;;;;;;4.75;2.50;;;;;20.11;40.05;98948.66;5069018;27;45458;-71
2021/12/08 08:56:57;;;;;;;;;2.00;2.00;;;;;20.07;40.67;98947.97;5069389;27;45333;-69
2021/12/08 08:59:28;;;;;;;;;4.25;3.00;;;;;20.08;41.27;98941.75;5051454;27;45419;-71
2021/12/08 09:01:55;;;;;;;;;4.50;1.75;;;;;20.06;40.15;98935.66;5083921;27;45701;-71
2021/12/08 09:04:27;;;;;;;;;1.75;1.00;;;;;20.13;41.06;98954.69;5067801;27;46329;-73
2021/12/08 09:06:56;;;;;;;;;4.00;3.00;;;;;20.11;39.63;98943.34;5067961;27;45290;-71
2021/12/08 09:09:26;;;;;;;;;2.25;1.00;;;;;20.10;40.10;98955.75;5103364;27;45687;-72
2021/12/08 09:12:12;;;;;;;;;2.00;1.75;;;;;20.03;39.17;98955.22;5066310;27;45512;-72
2021/12/08 09:14:42;;;;;;;;;3.00;1.75;;;;;19.93;39.11;98958.50;5059594;27;45366;-72
2021/12/08 09:17:11;;;;;;;;;2.50;2.50;;;;;19.88;39.13;98965.84;5084434;27;45481;-73
2021/12/08 09:19:42;;;;;;;;;5.00;3.00;;;;;19.81;39.45;98977.72;5084576;27;45269;-73
2021/12/08 09:22:19;;;;;;;;;3.00;1.50;;;;;19.81;39.29;98985.66;5051504;27;45696;-74
2021/12/08 09:24:59;;;;;;;;;3.75;1.75;;;;;19.82;39.39;98987.41;5050733;27;47338;-73
2021/12/08 09:27:33;;;;;;;;;2.00;2.00;;;;;19.77;39.53;98977.91;5068303;27;45486;-72
2021/12/08 09:30:09;;;;;;;;;5.00;3.00;;;;;19.79;40.13;98984.91;5051532;27;45256;-74
2021/12/08 09:32:41;;;;;;;;;0.00;0.00;;;;;19.84;39.09;98996.09;5061266;28;45744;-73
2021/12/08 09:35:30;;;;;;;;;2.25;1.75;;;;;19.82;39.47;98998.00;5049771;28;47025;-71
2021/12/08 09:38:07;;;;;;;;;1.75;1.75;;;;;19.77;39.10;99001.72;5050846;28;45455;-73
2021/12/08 09:41:27;;;;;;;;;5.00;3.00;;;;;19.74;39.21;99011.66;5065837;27;45340;-73
2021/12/08 09:43:59;;;;;;;;;3.00;3.00;;;;;19.63;39.24;98998.13;5053345;28;45880;-72
2021/12/08 09:46:32;;;;;;;;;3.00;2.00;;;;;19.62;38.29;99002.56;5080285;28;45423;-73
2021/12/08 09:48:57;;;;;;;;;2.50;2.25;;;;;19.53;39.23;99003.06;5063852;28;45442;-73
2021/12/08 09:51:24;;;;;;;;;4.00;1.00;;;;;19.48;39.16;99013.06;5063456;28;64084;-72
2021/12/08 09:53:49;;;;;;;;;3.00;2.00;;;;;19.44;39.56;99006.22;5063689;27;45521;-72
2021/12/08 09:56:16;;;;;;;;;4.50;1.75;;;;;19.45;39.70;99002.63;5062870;28;47718;-72
2021/12/08 09:58:42;;;;;;;;;3.00;2.25;;;;;19.46;38.97;98996.41;5063842;27;45269;-73
2021/12/08 10:01:09;;;;;;;;;1.00;1.00;;;;;19.45;39.51;98992.03;5046957;28;45695;-72
2021/12/08 10:03:35;;;;;;;;;1.25;1.25;;;;;19.43;39.83;98983.34;5047067;28;45540;-72
2021/12/08 10:06:01;;;;;;;;;2.00;2.00;;;;;19.45;39.56;98974.38;5063180;28;48723;-72
2021/12/08 10:08:28;;;;;;;;;2.00;2.00;;;;;19.46;39.29;98978.75;5080132;28;45382;-72
2021/12/08 10:10:53;;;;;;;;;2.00;2.00;;;;;19.48;39.42;98970.72;5046757;28;45470;-72
2021/12/08 10:13:19;;;;;;;;;1.75;1.50;;;;;19.45;39.95;98969.06;5062794;28;54339;-73
2021/12/08 10:15:48;;;;;;;;;1.00;1.00;;;;;19.51;39.32;98973.19;5063412;28;45292;-72
2021/12/08 10:18:13;;;;;;;;;3.25;2.00;;;;;19.45;38.89;98971.72;5047268;28;45384;-73
2021/12/08 10:20:49;;;;;;;;;2.00;1.75;;;;;19.38;39.09;98953.66;5080180;28;45389;-72
2021/12/08 10:23:14;;;;;;;;;3.75;1.75;;;;;19.38;39.37;98962.44;5063136;28;45594;-72
2021/12/08 10:25:52;;;;;;;;;2.75;1.50;;;;;19.38;39.18;98966.88;5079743;28;47072;-72
2021/12/08 10:28:25;;;;;;;;;2.75;2.00;;;;;19.40;39.26;98988.81;5079376;27;45255;-72
2021/12/08 10:30:54;;;;;;;;;3.00;2.00;;;;;19.42;39.44;98989.56;5064194;28;45455;-72
2021/12/08 10:39:38;;;;;;;;;2.50;1.25;;;;;19.45;39.08;98973.53;5079898;28;46566;-72
2021/12/08 10:42:23;;;;;;;;;3.75;1.75;;;;;19.45;38.46;98976.16;5079468;28;45267;-72
2021/12/08 10:45:15;;;;;;;;;3.00;1.25;;;;;19.45;38.36;98973.53;5079804;28;45374;-74
2021/12/08 10:47:45;;;;;;;;;2.25;1.25;;;;;19.41;38.46;98966.69;5079684;28;48606;-74
2021/12/08 10:55:54;;;;;;;;;2.25;2.00;;;;;19.34;38.75;98971.47;5071558;28;45464;-69
2021/12/08 10:58:23;;;;;;;;;4.00;2.75;;;;;19.34;39.58;98974.13;5047239;28;47921;-73
2021/12/08 11:00:49;;;;;;;;;3.75;0.75;;;;;19.36;38.55;98974.03;5079437;28;45411;-72
2021/12/08 11:03:16;;;;;;;;;2.25;2.00;;;;;19.34;39.32;98982.06;5079508;28;45425;-71
2021/12/08 11:05:45;;;;;;;;;4.25;2.75;;;;;19.36;38.38;98987.25;5079486;27;45389;-75
2021/12/08 11:08:11;;;;;;;;;3.00;1.00;;;;;19.34;39.77;98984.69;5062103;28;45835;-80
2021/12/08 11:10:45;;;;;;;;;2.50;2.50;;;;;19.45;41.29;98984.09;5063504;28;45346;-71
2021/12/08 11:13:14;;;;;;;;;3.50;3.00;;;;;19.60;42.53;98983.28;5081258;27;45358;-71
2021/12/08 11:15:40;;;;;;;;;2.00;2.00;;;;;19.72;42.12;98985.28;5062418;28;45993;-71
2021/12/08 11:18:20;;;;;;;;;5.00;3.00;;;;;19.87;43.00;98991.47;5062181;27;47232;-71
2021/12/08 11:21:00;;;;;;;;;3.75;3.00;;;;;19.98;43.42;98985.56;5058849;28;45466;-71
2021/12/08 11:23:44;;;;;;;;;3.50;2.25;;;;;20.09;43.43;98985.81;5062134;28;45354;-70
2021/12/08 11:26:30;;;;;;;;;4.00;4.00;;;;;20.20;43.29;98978.09;5079122;28;45266;-71
2021/12/08 11:29:09;;;;;;;;;4.00;4.00;;;;;20.28;43.52;98977.66;5080037;28;46451;-70
2021/12/08 11:31:48;;;;;;;;;3.00;3.00;;;;;20.37;43.67;98973.59;5079401;27;45315;-70
2021/12/08 11:34:19;;;;;;;;;2.25;2.00;;;;;20.43;43.61;98973.25;5100805;27;45516;-72
2021/12/08 11:36:50;;;;;;;;;3.00;2.00;;;;;20.49;43.62;98967.59;5098053;27;45496;-72
2021/12/08 11:39:18;;;;;;;;;6.00;3.00;;;;;20.56;43.66;98968.94;5082418;27;45321;-72
2021/12/08 11:41:51;;;;;;;;;3.75;3.00;;;;;20.60;43.59;98975.78;5064948;27;45285;-71
2021/12/08 11:44:19;;;;;;;;;3.00;2.00;;;;;20.64;43.16;98977.28;5048696;27;45218;-78
2021/12/08 11:47:15;;;;;;;;;3.75;2.50;;;;;20.67;43.03;98979.75;5082527;27;45535;-77
2021/12/08 11:50:14;;;;;;;;;3.00;3.00;;;;;20.71;43.17;98989.22;5061246;28;47945;-73
2021/12/08 11:52:39;;;;;;;;;3.75;3.00;;;;;20.73;42.87;98975.88;5038401;27;45335;-71
2021/12/08 11:55:15;;;;;;;;;3.75;3.50;;;;;20.74;42.42;98978.44;5082409;27;45415;-72
2021/12/08 11:57:44;;;;;;;;;3.50;3.25;;;;;20.72;42.69;98975.03;5065289;27;45496;-71
2021/12/08 12:00:11;;;;;;;;;2.75;2.75;;;;;20.76;42.51;98984.53;5072876;27;47036;-70
2021/12/08 12:02:44;;;;;;;;;3.00;3.00;;;;;20.77;42.85;98999.47;5103704;27;45280;-71
2021/12/08 12:05:15;;;;;;;;;4.25;3.75;;;;;20.78;42.71;98995.88;5066105;27;45530;-71
2021/12/08 12:07:41;;;;;;;;;4.00;3.00;;;;;20.80;42.31;98993.97;5100544;27;45500;-72
2021/12/08 12:10:10;;;;;;;;;4.25;4.00;;;;;20.81;42.76;99006.28;5070402;27;45402;-74
2021/12/08 12:12:37;;;;;;;;;5.50;4.50;;;;;20.80;43.04;99004.59;5081645;27;45505;-71
2021/12/08 12:15:05;;;;;;;;;4.00;2.75;;;;;20.81;43.15;98990.38;5099108;27;45345;-74
2021/12/08 12:17:30;;;;;;;;;4.25;4.00;;;;;20.85;43.42;99001.66;5065365;27;45486;-73
2021/12/08 12:20:19;;;;;;;;;3.00;3.00;;;;;20.88;43.56;99004.97;5051770;27;48059;-74
2021/12/08 12:23:10;;;;;;;;;7.75;3.00;;;;;20.92;43.23;98989.72;5081635;27;45366;-73
2021/12/08 12:25:54;;;;;;;;;7.50;4.50;;;;;20.94;43.57;98990.50;5100109;27;45497;-77
2021/12/08 12:28:27;;;;;;;;;5.00;3.75;;;;;20.95;43.65;99000.16;5083364;27;45241;-75
2021/12/08 12:31:10;;;;;;;;;4.75;3.50;;;;;20.95;43.70;99001.97;5064750;27;45561;-72
2021/12/08 12:33:41;;;;;;;;;5.25;5.25;;;;;20.97;44.48;99005.38;5068446;27;46109;-76
2021/12/08 12:36:18;;;;;;;;;4.00;3.00;;;;;21.00;44.43;99016.63;5067996;27;45293;-70
2021/12/08 12:38:43;;;;;;;;;5.25;5.25;;;;;21.02;44.34;99027.13;5085160;27;45257;-73
2021/12/08 12:41:25;;;;;;;;;6.25;2.00;;;;;21.04;44.39;99030.56;5102367;27;56030;-70
2021/12/08 12:43:51;;;;;;;;;5.75;3.00;;;;;21.05;44.29;99035.78;5077617;27;45304;-69
2021/12/08 12:46:16;;;;;;;;;5.50;4.75;;;;;21.08;44.47;99029.41;5079583;27;55965;-69
2021/12/08 12:48:51;;;;;;;;;4.75;2.75;;;;;21.11;44.33;99038.06;5067391;27;45532;-70
2021/12/08 12:51:17;;;;;;;;;5.00;3.75;;;;;21.15;44.20;99044.88;5085478;27;47451;-70
2021/12/08 12:53:46;;;;;;;;;5.00;3.50;;;;;21.20;43.79;99043.72;5068179;27;45437;-69
2021/12/08 12:56:14;;;;;;;;;4.50;3.75;;;;;21.22;43.66;99049.81;5084869;27;45323;-69
2021/12/08 12:58:53;;;;;;;;;5.00;3.00;;;;;21.25;43.51;99042.50;5067845;27;45620;-69